sensor_id;sensor_type;location;lat;lon;timestamp;P1;durP1;ratioP1;P2;durP2;ratioP2
14100;SDS011;7127;49.372;8.166;2023-05-07T00:02:24;0.73;;;0.60;;
14100;SDS011;7127;49.372;8.166;2023-05-07T00:04:53;1.27;;;0.90;;
14100;SDS011;7127;49.372;8.166;2023-05-07T00:07:21;1.80;;;0.97;;
14100;SDS011;7127;49.372;8.166;2023-05-07T00:09:50;1.33;;;1.00;;
14100;SDS011;7127;49.372;8.166;2023-05-07T00:12:18;2.20;;;1.03;;
14100;SDS011;7127;49.372;8.166;2023-05-07T00:14:48;1.03;;;0.93;;
14100;SDS011;7127;49.372;8.166;2023-05-07T00:17:15;0.80;;;0.80;;
14100;SDS011;7127;49.372;8.166;2023-05-07T00:19:44;1.03;;;0.93;;
14100;SDS011;7127;49.372;8.166;2023-05-07T00:22:13;1.03;;;0.83;;
14100;SDS011;7127;49.372;8.166;2023-05-07T00:24:42;0.70;;;0.70;;
14100;SDS011;7127;49.372;8.166;2023-05-07T00:27:11;0.77;;;0.77;;
14100;SDS011;7127;49.372;8.166;2023-05-07T00:29:39;1.03;;;0.77;;
14100;SDS011;7127;49.372;8.166;2023-05-07T00:32:08;1.20;;;1.03;;
14100;SDS011;7127;49.372;8.166;2023-05-07T00:34:37;0.97;;;0.90;;
14100;SDS011;7127;49.372;8.166;2023-05-07T00:37:05;1.17;;;0.80;;
14100;SDS011;7127;49.372;8.166;2023-05-07T00:39:35;0.90;;;0.90;;
14100;SDS011;7127;49.372;8.166;2023-05-07T00:42:13;1.90;;;1.50;;
14100;SDS011;7127;49.372;8.166;2023-05-07T00:44:41;2.23;;;1.87;;
14100;SDS011;7127;49.372;8.166;2023-05-07T00:47:11;2.87;;;2.03;;
14100;SDS011;7127;49.372;8.166;2023-05-07T00:49:43;2.97;;;2.00;;
14100;SDS011;7127;49.372;8.166;2023-05-07T00:52:11;1.97;;;1.60;;
14100;SDS011;7127;49.372;8.166;2023-05-07T00:54:46;2.43;;;2.10;;
14100;SDS011;7127;49.372;8.166;2023-05-07T00:57:14;2.23;;;1.90;;
14100;SDS011;7127;49.372;8.166;2023-05-07T00:59:43;2.43;;;2.00;;
14100;SDS011;7127;49.372;8.166;2023-05-07T01:02:11;2.43;;;2.10;;
14100;SDS011;7127;49.372;8.166;2023-05-07T01:04:39;2.20;;;1.87;;
14100;SDS011;7127;49.372;8.166;2023-05-07T01:07:09;2.30;;;1.80;;
14100;SDS011;7127;49.372;8.166;2023-05-07T01:09:37;2.17;;;1.67;;
14100;SDS011;7127;49.372;8.166;2023-05-07T01:12:10;1.67;;;1.47;;
14100;SDS011;7127;49.372;8.166;2023-05-07T01:14:41;1.10;;;1.00;;
14100;SDS011;7127;49.372;8.166;2023-05-07T01:17:16;1.53;;;0.93;;
14100;SDS011;7127;49.372;8.166;2023-05-07T01:19:44;0.90;;;0.90;;
14100;SDS011;7127;49.372;8.166;2023-05-07T01:22:13;0.97;;;0.90;;
14100;SDS011;7127;49.372;8.166;2023-05-07T01:24:45;0.90;;;0.90;;
14100;SDS011;7127;49.372;8.166;2023-05-07T01:27:19;0.93;;;0.90;;
14100;SDS011;7127;49.372;8.166;2023-05-07T01:29:54;2.10;;;1.00;;
14100;SDS011;7127;49.372;8.166;2023-05-07T01:32:32;0.97;;;0.87;;
14100;SDS011;7127;49.372;8.166;2023-05-07T01:35:07;1.17;;;0.97;;
14100;SDS011;7127;49.372;8.166;2023-05-07T01:37:53;0.87;;;0.80;;
14100;SDS011;7127;49.372;8.166;2023-05-07T01:40:26;1.47;;;0.87;;
14100;SDS011;7127;49.372;8.166;2023-05-07T01:42:55;0.93;;;0.87;;
14100;SDS011;7127;49.372;8.166;2023-05-07T01:45:23;0.73;;;0.73;;
14100;SDS011;7127;49.372;8.166;2023-05-07T01:47:53;0.90;;;0.90;;
14100;SDS011;7127;49.372;8.166;2023-05-07T01:50:22;0.93;;;0.80;;
14100;SDS011;7127;49.372;8.166;2023-05-07T01:52:50;0.73;;;0.70;;
14100;SDS011;7127;49.372;8.166;2023-05-07T01:55:19;1.10;;;1.00;;
14100;SDS011;7127;49.372;8.166;2023-05-07T01:57:48;0.80;;;0.80;;
14100;SDS011;7127;49.372;8.166;2023-05-07T02:00:16;1.10;;;1.00;;
14100;SDS011;7127;49.372;8.166;2023-05-07T02:02:44;2.20;;;0.77;;
14100;SDS011;7127;49.372;8.166;2023-05-07T02:05:12;0.90;;;0.70;;
14100;SDS011;7127;49.372;8.166;2023-05-07T02:07:40;2.10;;;0.83;;
14100;SDS011;7127;49.372;8.166;2023-05-07T02:10:08;2.03;;;1.10;;
14100;SDS011;7127;49.372;8.166;2023-05-07T02:12:39;1.00;;;0.90;;
14100;SDS011;7127;49.372;8.166;2023-05-07T02:15:10;1.20;;;0.90;;
14100;SDS011;7127;49.372;8.166;2023-05-07T02:17:57;1.13;;;0.97;;
14100;SDS011;7127;49.372;8.166;2023-05-07T02:20:28;1.17;;;1.07;;
14100;SDS011;7127;49.372;8.166;2023-05-07T02:22:56;1.60;;;1.13;;
14100;SDS011;7127;49.372;8.166;2023-05-07T02:25:24;0.90;;;0.80;;
14100;SDS011;7127;49.372;8.166;2023-05-07T02:27:53;1.10;;;1.00;;
14100;SDS011;7127;49.372;8.166;2023-05-07T02:30:28;0.80;;;0.80;;
14100;SDS011;7127;49.372;8.166;2023-05-07T02:32:56;0.80;;;0.80;;
14100;SDS011;7127;49.372;8.166;2023-05-07T02:35:24;1.00;;;0.80;;
14100;SDS011;7127;49.372;8.166;2023-05-07T02:38:04;0.90;;;0.83;;
14100;SDS011;7127;49.372;8.166;2023-05-07T02:40:32;1.67;;;1.00;;
14100;SDS011;7127;49.372;8.166;2023-05-07T02:43:04;0.93;;;0.83;;
14100;SDS011;7127;49.372;8.166;2023-05-07T02:45:38;0.80;;;0.80;;
14100;SDS011;7127;49.372;8.166;2023-05-07T02:48:05;1.37;;;1.00;;
14100;SDS011;7127;49.372;8.166;2023-05-07T02:50:33;1.20;;;1.10;;
14100;SDS011;7127;49.372;8.166;2023-05-07T02:53:01;1.10;;;0.97;;
14100;SDS011;7127;49.372;8.166;2023-05-07T02:55:29;0.90;;;0.80;;
14100;SDS011;7127;49.372;8.166;2023-05-07T02:57:57;1.27;;;1.00;;
14100;SDS011;7127;49.372;8.166;2023-05-07T03:00:26;1.27;;;1.10;;
14100;SDS011;7127;49.372;8.166;2023-05-07T03:02:56;1.17;;;0.83;;
14100;SDS011;7127;49.372;8.166;2023-05-07T03:05:23;0.97;;;0.87;;
14100;SDS011;7127;49.372;8.166;2023-05-07T03:07:51;1.27;;;1.17;;
14100;SDS011;7127;49.372;8.166;2023-05-07T03:10:19;1.67;;;1.00;;
14100;SDS011;7127;49.372;8.166;2023-05-07T03:13:00;1.10;;;0.90;;
14100;SDS011;7127;49.372;8.166;2023-05-07T03:15:28;1.77;;;1.40;;
14100;SDS011;7127;49.372;8.166;2023-05-07T03:17:58;1.10;;;1.00;;
14100;SDS011;7127;49.372;8.166;2023-05-07T03:20:26;1.10;;;0.90;;
14100;SDS011;7127;49.372;8.166;2023-05-07T03:22:54;0.87;;;0.87;;
14100;SDS011;7127;49.372;8.166;2023-05-07T03:25:22;1.03;;;0.93;;
14100;SDS011;7127;49.372;8.166;2023-05-07T03:27:55;1.17;;;1.00;;
14100;SDS011;7127;49.372;8.166;2023-05-07T03:30:38;0.93;;;0.90;;
14100;SDS011;7127;49.372;8.166;2023-05-07T03:33:13;1.10;;;1.00;;
14100;SDS011;7127;49.372;8.166;2023-05-07T03:35:41;0.80;;;0.80;;
14100;SDS011;7127;49.372;8.166;2023-05-07T03:38:10;0.97;;;0.97;;
14100;SDS011;7127;49.372;8.166;2023-05-07T03:40:45;1.23;;;0.70;;
14100;SDS011;7127;49.372;8.166;2023-05-07T03:43:20;0.80;;;0.80;;
14100;SDS011;7127;49.372;8.166;2023-05-07T03:45:53;0.97;;;0.80;;
14100;SDS011;7127;49.372;8.166;2023-05-07T03:48:23;1.97;;;1.20;;
14100;SDS011;7127;49.372;8.166;2023-05-07T03:50:51;0.90;;;0.90;;
14100;SDS011;7127;49.372;8.166;2023-05-07T03:53:20;1.13;;;0.80;;
14100;SDS011;7127;49.372;8.166;2023-05-07T03:55:49;2.70;;;0.90;;
14100;SDS011;7127;49.372;8.166;2023-05-07T03:58:25;0.77;;;0.70;;
14100;SDS011;7127;49.372;8.166;2023-05-07T04:00:54;0.87;;;0.70;;
14100;SDS011;7127;49.372;8.166;2023-05-07T04:03:32;0.80;;;0.80;;
14100;SDS011;7127;49.372;8.166;2023-05-07T04:06:15;1.03;;;0.70;;
14100;SDS011;7127;49.372;8.166;2023-05-07T04:08:45;0.80;;;0.80;;
14100;SDS011;7127;49.372;8.166;2023-05-07T04:11:12;1.33;;;0.90;;
14100;SDS011;7127;49.372;8.166;2023-05-07T04:13:46;0.80;;;0.80;;
14100;SDS011;7127;49.372;8.166;2023-05-07T04:16:16;0.83;;;0.80;;
14100;SDS011;7127;49.372;8.166;2023-05-07T04:18:46;1.47;;;0.90;;
14100;SDS011;7127;49.372;8.166;2023-05-07T04:21:15;1.60;;;1.00;;
14100;SDS011;7127;49.372;8.166;2023-05-07T04:23:45;0.93;;;0.80;;
14100;SDS011;7127;49.372;8.166;2023-05-07T04:26:30;0.90;;;0.90;;
14100;SDS011;7127;49.372;8.166;2023-05-07T04:28:57;1.43;;;1.10;;
14100;SDS011;7127;49.372;8.166;2023-05-07T04:31:25;0.97;;;0.93;;
14100;SDS011;7127;49.372;8.166;2023-05-07T04:33:57;0.70;;;0.70;;
14100;SDS011;7127;49.372;8.166;2023-05-07T04:36:25;0.80;;;0.80;;
14100;SDS011;7127;49.372;8.166;2023-05-07T04:39:04;1.00;;;0.90;;
14100;SDS011;7127;49.372;8.166;2023-05-07T04:41:31;1.80;;;1.53;;
14100;SDS011;7127;49.372;8.166;2023-05-07T04:44:01;1.73;;;1.37;;
14100;SDS011;7127;49.372;8.166;2023-05-07T04:46:29;1.40;;;1.20;;
14100;SDS011;7127;49.372;8.166;2023-05-07T04:48:58;0.93;;;0.83;;
14100;SDS011;7127;49.372;8.166;2023-05-07T04:51:27;1.10;;;1.00;;
14100;SDS011;7127;49.372;8.166;2023-05-07T04:54:05;0.80;;;0.80;;
14100;SDS011;7127;49.372;8.166;2023-05-07T04:56:33;0.80;;;0.80;;
14100;SDS011;7127;49.372;8.166;2023-05-07T04:59:01;0.90;;;0.90;;
14100;SDS011;7127;49.372;8.166;2023-05-07T05:01:30;0.90;;;0.80;;
14100;SDS011;7127;49.372;8.166;2023-05-07T05:04:03;0.70;;;0.70;;
14100;SDS011;7127;49.372;8.166;2023-05-07T05:06:34;1.17;;;0.80;;
14100;SDS011;7127;49.372;8.166;2023-05-07T05:09:02;0.87;;;0.80;;
14100;SDS011;7127;49.372;8.166;2023-05-07T05:11:30;1.97;;;0.97;;
14100;SDS011;7127;49.372;8.166;2023-05-07T05:13:58;1.57;;;0.70;;
14100;SDS011;7127;49.372;8.166;2023-05-07T05:16:27;0.80;;;0.80;;
14100;SDS011;7127;49.372;8.166;2023-05-07T05:19:02;0.93;;;0.83;;
14100;SDS011;7127;49.372;8.166;2023-05-07T05:21:30;1.27;;;1.00;;
14100;SDS011;7127;49.372;8.166;2023-05-07T05:23:58;0.60;;;0.60;;
14100;SDS011;7127;49.372;8.166;2023-05-07T05:26:25;0.97;;;0.80;;
14100;SDS011;7127;49.372;8.166;2023-05-07T05:28:52;0.67;;;0.67;;
14100;SDS011;7127;49.372;8.166;2023-05-07T05:31:19;1.00;;;0.80;;
14100;SDS011;7127;49.372;8.166;2023-05-07T05:33:46;1.00;;;0.90;;
14100;SDS011;7127;49.372;8.166;2023-05-07T05:36:15;1.17;;;1.07;;
14100;SDS011;7127;49.372;8.166;2023-05-07T05:38:42;1.60;;;1.23;;
14100;SDS011;7127;49.372;8.166;2023-05-07T05:41:09;1.33;;;1.23;;
14100;SDS011;7127;49.372;8.166;2023-05-07T05:43:36;1.30;;;1.10;;
14100;SDS011;7127;49.372;8.166;2023-05-07T05:46:03;1.43;;;1.13;;
14100;SDS011;7127;49.372;8.166;2023-05-07T05:48:31;1.20;;;1.10;;
14100;SDS011;7127;49.372;8.166;2023-05-07T05:50:58;1.37;;;1.20;;
14100;SDS011;7127;49.372;8.166;2023-05-07T05:53:27;1.27;;;1.00;;
14100;SDS011;7127;49.372;8.166;2023-05-07T05:55:54;0.77;;;0.77;;
14100;SDS011;7127;49.372;8.166;2023-05-07T05:58:21;2.00;;;0.90;;
14100;SDS011;7127;49.372;8.166;2023-05-07T06:00:48;0.70;;;0.70;;
14100;SDS011;7127;49.372;8.166;2023-05-07T06:03:17;0.60;;;0.60;;
14100;SDS011;7127;49.372;8.166;2023-05-07T06:05:44;0.83;;;0.80;;
14100;SDS011;7127;49.372;8.166;2023-05-07T06:08:11;0.87;;;0.87;;
14100;SDS011;7127;49.372;8.166;2023-05-07T06:10:39;0.80;;;0.80;;
14100;SDS011;7127;49.372;8.166;2023-05-07T06:13:06;0.80;;;0.80;;
14100;SDS011;7127;49.372;8.166;2023-05-07T06:15:33;0.97;;;0.87;;
14100;SDS011;7127;49.372;8.166;2023-05-07T06:18:00;0.77;;;0.77;;
14100;SDS011;7127;49.372;8.166;2023-05-07T06:20:27;1.57;;;1.10;;
14100;SDS011;7127;49.372;8.166;2023-05-07T06:22:54;0.77;;;0.70;;
14100;SDS011;7127;49.372;8.166;2023-05-07T06:25:21;1.57;;;0.90;;
14100;SDS011;7127;49.372;8.166;2023-05-07T06:27:49;1.77;;;1.03;;
14100;SDS011;7127;49.372;8.166;2023-05-07T06:30:17;0.90;;;0.80;;
14100;SDS011;7127;49.372;8.166;2023-05-07T06:32:44;1.33;;;1.00;;
14100;SDS011;7127;49.372;8.166;2023-05-07T06:35:10;0.90;;;0.90;;
14100;SDS011;7127;49.372;8.166;2023-05-07T06:37:38;1.53;;;1.07;;
14100;SDS011;7127;49.372;8.166;2023-05-07T06:40:07;1.33;;;1.03;;
14100;SDS011;7127;49.372;8.166;2023-05-07T06:42:35;1.17;;;1.07;;
14100;SDS011;7127;49.372;8.166;2023-05-07T06:45:07;0.90;;;0.90;;
14100;SDS011;7127;49.372;8.166;2023-05-07T06:47:35;1.37;;;1.03;;
14100;SDS011;7127;49.372;8.166;2023-05-07T06:50:02;1.20;;;1.00;;
14100;SDS011;7127;49.372;8.166;2023-05-07T06:52:29;1.03;;;0.97;;
14100;SDS011;7127;49.372;8.166;2023-05-07T06:54:55;0.90;;;0.90;;
14100;SDS011;7127;49.372;8.166;2023-05-07T06:57:23;1.23;;;1.00;;
14100;SDS011;7127;49.372;8.166;2023-05-07T06:59:50;1.20;;;1.10;;
14100;SDS011;7127;49.372;8.166;2023-05-07T07:02:18;0.83;;;0.83;;
14100;SDS011;7127;49.372;8.166;2023-05-07T07:04:45;1.10;;;1.00;;
14100;SDS011;7127;49.372;8.166;2023-05-07T07:07:12;1.17;;;1.07;;
14100;SDS011;7127;49.372;8.166;2023-05-07T07:09:39;0.80;;;0.80;;
14100;SDS011;7127;49.372;8.166;2023-05-07T07:12:06;2.40;;;0.97;;
14100;SDS011;7127;49.372;8.166;2023-05-07T07:14:33;1.10;;;1.00;;
14100;SDS011;7127;49.372;8.166;2023-05-07T07:17:00;1.13;;;0.80;;
14100;SDS011;7127;49.372;8.166;2023-05-07T07:19:28;0.87;;;0.87;;
14100;SDS011;7127;49.372;8.166;2023-05-07T07:21:55;1.03;;;0.93;;
14100;SDS011;7127;49.372;8.166;2023-05-07T07:24:22;0.77;;;0.77;;
14100;SDS011;7127;49.372;8.166;2023-05-07T07:26:49;2.80;;;0.90;;
14100;SDS011;7127;49.372;8.166;2023-05-07T07:29:16;0.97;;;0.87;;
14100;SDS011;7127;49.372;8.166;2023-05-07T07:31:44;1.23;;;1.00;;
14100;SDS011;7127;49.372;8.166;2023-05-07T07:34:11;1.00;;;1.00;;
14100;SDS011;7127;49.372;8.166;2023-05-07T07:36:39;1.20;;;1.00;;
14100;SDS011;7127;49.372;8.166;2023-05-07T07:39:06;1.20;;;1.10;;
14100;SDS011;7127;49.372;8.166;2023-05-07T07:41:33;1.63;;;1.20;;
14100;SDS011;7127;49.372;8.166;2023-05-07T07:44:00;1.10;;;1.00;;
14100;SDS011;7127;49.372;8.166;2023-05-07T07:46:32;1.43;;;1.03;;
14100;SDS011;7127;49.372;8.166;2023-05-07T07:48:59;1.23;;;0.93;;
14100;SDS011;7127;49.372;8.166;2023-05-07T07:51:25;1.03;;;0.90;;
14100;SDS011;7127;49.372;8.166;2023-05-07T07:53:54;0.90;;;0.80;;
14100;SDS011;7127;49.372;8.166;2023-05-07T07:56:22;0.90;;;0.90;;
14100;SDS011;7127;49.372;8.166;2023-05-07T07:58:49;1.57;;;1.10;;
14100;SDS011;7127;49.372;8.166;2023-05-07T08:01:16;0.77;;;0.77;;
14100;SDS011;7127;49.372;8.166;2023-05-07T08:03:43;1.30;;;1.20;;
14100;SDS011;7127;49.372;8.166;2023-05-07T08:06:10;1.00;;;0.93;;
14100;SDS011;7127;49.372;8.166;2023-05-07T08:08:38;1.20;;;1.10;;
14100;SDS011;7127;49.372;8.166;2023-05-07T08:11:06;1.00;;;1.00;;
14100;SDS011;7127;49.372;8.166;2023-05-07T08:13:33;1.10;;;1.00;;
14100;SDS011;7127;49.372;8.166;2023-05-07T08:16:00;1.03;;;1.00;;
14100;SDS011;7127;49.372;8.166;2023-05-07T08:18:27;1.37;;;0.93;;
14100;SDS011;7127;49.372;8.166;2023-05-07T08:20:54;1.83;;;1.00;;
14100;SDS011;7127;49.372;8.166;2023-05-07T08:23:22;1.47;;;1.10;;
14100;SDS011;7127;49.372;8.166;2023-05-07T08:25:49;0.83;;;0.83;;
14100;SDS011;7127;49.372;8.166;2023-05-07T08:28:17;2.03;;;1.20;;
14100;SDS011;7127;49.372;8.166;2023-05-07T08:30:46;1.70;;;1.33;;
14100;SDS011;7127;49.372;8.166;2023-05-07T08:33:13;1.53;;;1.07;;
14100;SDS011;7127;49.372;8.166;2023-05-07T08:35:40;1.77;;;1.20;;
14100;SDS011;7127;49.372;8.166;2023-05-07T08:38:12;0.90;;;0.90;;
14100;SDS011;7127;49.372;8.166;2023-05-07T08:40:39;2.03;;;1.23;;
14100;SDS011;7127;49.372;8.166;2023-05-07T08:43:07;1.10;;;1.00;;
14100;SDS011;7127;49.372;8.166;2023-05-07T08:45:36;1.00;;;0.90;;
14100;SDS011;7127;49.372;8.166;2023-05-07T08:48:08;0.97;;;0.97;;
14100;SDS011;7127;49.372;8.166;2023-05-07T08:50:40;1.00;;;1.00;;
14100;SDS011;7127;49.372;8.166;2023-05-07T08:53:08;1.50;;;1.20;;
14100;SDS011;7127;49.372;8.166;2023-05-07T08:55:37;1.13;;;1.03;;
14100;SDS011;7127;49.372;8.166;2023-05-07T08:58:04;2.60;;;1.13;;
14100;SDS011;7127;49.372;8.166;2023-05-07T09:00:32;1.80;;;1.20;;
14100;SDS011;7127;49.372;8.166;2023-05-07T09:05:39;1.13;;;1.10;;
14100;SDS011;7127;49.372;8.166;2023-05-07T09:08:35;0.90;;;0.90;;
14100;SDS011;7127;49.372;8.166;2023-05-07T09:16:48;1.70;;;0.97;;
14100;SDS011;7127;49.372;8.166;2023-05-07T09:24:48;1.63;;;1.50;;
14100;SDS011;7127;49.372;8.166;2023-05-07T09:27:17;1.30;;;1.17;;
14100;SDS011;7127;49.372;8.166;2023-05-07T09:43:34;2.20;;;1.03;;
14100;SDS011;7127;49.372;8.166;2023-05-07T09:46:15;1.93;;;1.20;;
14100;SDS011;7127;49.372;8.166;2023-05-07T09:52:39;1.40;;;1.10;;
14100;SDS011;7127;49.372;8.166;2023-05-07T09:55:08;1.23;;;1.13;;
14100;SDS011;7127;49.372;8.166;2023-05-07T09:57:37;2.20;;;1.00;;
14100;SDS011;7127;49.372;8.166;2023-05-07T10:00:06;1.40;;;1.17;;
14100;SDS011;7127;49.372;8.166;2023-05-07T10:02:35;1.60;;;1.20;;
14100;SDS011;7127;49.372;8.166;2023-05-07T10:05:03;1.30;;;1.10;;
14100;SDS011;7127;49.372;8.166;2023-05-07T10:07:39;1.48;;;1.38;;
14100;SDS011;7127;49.372;8.166;2023-05-07T10:10:12;1.65;;;1.38;;
14100;SDS011;7127;49.372;8.166;2023-05-07T10:12:42;1.67;;;1.10;;
14100;SDS011;7127;49.372;8.166;2023-05-07T10:15:09;1.83;;;1.73;;
14100;SDS011;7127;49.372;8.166;2023-05-07T10:17:39;1.40;;;1.20;;
14100;SDS011;7127;49.372;8.166;2023-05-07T10:20:07;1.65;;;1.55;;
14100;SDS011;7127;49.372;8.166;2023-05-07T10:22:37;1.55;;;1.23;;
14100;SDS011;7127;49.372;8.166;2023-05-07T10:25:09;1.30;;;1.20;;
14100;SDS011;7127;49.372;8.166;2023-05-07T10:27:52;1.35;;;1.25;;
14100;SDS011;7127;49.372;8.166;2023-05-07T10:30:24;2.42;;;1.58;;
14100;SDS011;7127;49.372;8.166;2023-05-07T10:32:59;1.60;;;1.50;;
14100;SDS011;7127;49.372;8.166;2023-05-07T10:35:31;1.20;;;1.10;;
14100;SDS011;7127;49.372;8.166;2023-05-07T10:38:04;1.10;;;1.00;;
14100;SDS011;7127;49.372;8.166;2023-05-07T10:40:37;3.05;;;1.75;;
14100;SDS011;7127;49.372;8.166;2023-05-07T10:43:06;1.23;;;1.13;;
14100;SDS011;7127;49.372;8.166;2023-05-07T10:49:13;2.55;;;1.70;;
14100;SDS011;7127;49.372;8.166;2023-05-07T10:51:46;1.52;;;1.42;;
14100;SDS011;7127;49.372;8.166;2023-05-07T10:54:40;1.25;;;1.15;;
14100;SDS011;7127;49.372;8.166;2023-05-07T11:00:02;1.58;;;1.48;;
14100;SDS011;7127;49.372;8.166;2023-05-07T11:05:32;1.60;;;1.35;;
14100;SDS011;7127;49.372;8.166;2023-05-07T11:08:00;1.80;;;1.70;;
14100;SDS011;7127;49.372;8.166;2023-05-07T11:13:15;1.80;;;1.50;;
14100;SDS011;7127;49.372;8.166;2023-05-07T11:15:45;1.80;;;1.48;;
14100;SDS011;7127;49.372;8.166;2023-05-07T11:18:14;2.25;;;2.05;;
14100;SDS011;7127;49.372;8.166;2023-05-07T11:20:49;1.38;;;1.27;;
14100;SDS011;7127;49.372;8.166;2023-05-07T11:26:24;1.60;;;1.30;;
14100;SDS011;7127;49.372;8.166;2023-05-07T11:28:51;1.65;;;1.40;;
14100;SDS011;7127;49.372;8.166;2023-05-07T11:31:24;1.60;;;1.50;;
14100;SDS011;7127;49.372;8.166;2023-05-07T11:33:53;2.00;;;1.50;;
14100;SDS011;7127;49.372;8.166;2023-05-07T11:36:24;1.48;;;1.38;;
14100;SDS011;7127;49.372;8.166;2023-05-07T11:38:52;1.70;;;1.50;;
14100;SDS011;7127;49.372;8.166;2023-05-07T11:41:19;1.60;;;1.50;;
14100;SDS011;7127;49.372;8.166;2023-05-07T11:43:57;1.95;;;1.50;;
14100;SDS011;7127;49.372;8.166;2023-05-07T11:46:28;1.50;;;1.40;;
14100;SDS011;7127;49.372;8.166;2023-05-07T11:48:55;1.65;;;1.20;;
14100;SDS011;7127;49.372;8.166;2023-05-07T11:51:23;2.63;;;1.90;;
14100;SDS011;7127;49.372;8.166;2023-05-07T11:53:52;1.65;;;1.40;;
14100;SDS011;7127;49.372;8.166;2023-05-07T11:56:20;1.55;;;1.42;;
14100;SDS011;7127;49.372;8.166;2023-05-07T11:58:47;1.52;;;1.42;;
14100;SDS011;7127;49.372;8.166;2023-05-07T12:01:16;2.00;;;1.42;;
14100;SDS011;7127;49.372;8.166;2023-05-07T12:03:45;1.60;;;1.40;;
14100;SDS011;7127;49.372;8.166;2023-05-07T12:06:13;2.08;;;1.52;;
14100;SDS011;7127;49.372;8.166;2023-05-07T12:08:42;2.17;;;1.60;;
14100;SDS011;7127;49.372;8.166;2023-05-07T12:11:14;1.48;;;1.38;;
14100;SDS011;7127;49.372;8.166;2023-05-07T12:13:43;1.50;;;1.38;;
14100;SDS011;7127;49.372;8.166;2023-05-07T12:16:10;1.67;;;1.58;;
14100;SDS011;7127;49.372;8.166;2023-05-07T12:18:37;2.30;;;1.20;;
14100;SDS011;7127;49.372;8.166;2023-05-07T12:21:06;1.33;;;1.23;;
14100;SDS011;7127;49.372;8.166;2023-05-07T12:23:34;1.70;;;1.30;;
14100;SDS011;7127;49.372;8.166;2023-05-07T12:26:02;1.55;;;1.40;;
14100;SDS011;7127;49.372;8.166;2023-05-07T12:28:31;1.75;;;1.60;;
14100;SDS011;7127;49.372;8.166;2023-05-07T12:31:03;1.70;;;1.60;;
14100;SDS011;7127;49.372;8.166;2023-05-07T12:33:30;2.50;;;1.80;;
14100;SDS011;7127;49.372;8.166;2023-05-07T12:35:58;1.73;;;1.60;;
14100;SDS011;7127;49.372;8.166;2023-05-07T12:38:32;2.20;;;1.45;;
14100;SDS011;7127;49.372;8.166;2023-05-07T12:41:01;1.17;;;1.08;;
14100;SDS011;7127;49.372;8.166;2023-05-07T12:43:29;2.10;;;1.50;;
14100;SDS011;7127;49.372;8.166;2023-05-07T12:45:56;1.45;;;1.35;;
14100;SDS011;7127;49.372;8.166;2023-05-07T12:48:26;1.33;;;1.20;;
14100;SDS011;7127;49.372;8.166;2023-05-07T12:50:53;2.33;;;1.42;;
14100;SDS011;7127;49.372;8.166;2023-05-07T12:53:21;1.75;;;1.40;;
14100;SDS011;7127;49.372;8.166;2023-05-07T12:55:51;3.13;;;1.10;;
14100;SDS011;7127;49.372;8.166;2023-05-07T12:58:24;1.20;;;1.10;;
14100;SDS011;7127;49.372;8.166;2023-05-07T13:00:53;1.00;;;0.90;;
14100;SDS011;7127;49.372;8.166;2023-05-07T13:03:24;1.30;;;0.98;;
14100;SDS011;7127;49.372;8.166;2023-05-07T13:05:52;2.17;;;1.00;;
14100;SDS011;7127;49.372;8.166;2023-05-07T13:08:24;1.23;;;1.08;;
14100;SDS011;7127;49.372;8.166;2023-05-07T13:10:53;1.35;;;1.20;;
14100;SDS011;7127;49.372;8.166;2023-05-07T13:13:21;1.42;;;1.15;;
14100;SDS011;7127;49.372;8.166;2023-05-07T13:18:24;1.05;;;0.85;;
14100;SDS011;7127;49.372;8.166;2023-05-07T13:20:51;1.17;;;1.00;;
14100;SDS011;7127;49.372;8.166;2023-05-07T13:23:18;0.73;;;0.70;;
14100;SDS011;7127;49.372;8.166;2023-05-07T13:25:45;1.42;;;1.20;;
14100;SDS011;7127;49.372;8.166;2023-05-07T13:28:14;1.15;;;0.93;;
14100;SDS011;7127;49.372;8.166;2023-05-07T13:30:41;1.65;;;1.20;;
14100;SDS011;7127;49.372;8.166;2023-05-07T13:33:08;0.95;;;0.90;;
14100;SDS011;7127;49.372;8.166;2023-05-07T13:35:35;0.82;;;0.82;;
14100;SDS011;7127;49.372;8.166;2023-05-07T13:38:02;1.00;;;0.90;;
14100;SDS011;7127;49.372;8.166;2023-05-07T13:40:29;0.90;;;0.90;;
14100;SDS011;7127;49.372;8.166;2023-05-07T13:42:57;0.77;;;0.77;;
14100;SDS011;7127;49.372;8.166;2023-05-07T13:45:27;0.80;;;0.80;;
14100;SDS011;7127;49.372;8.166;2023-05-07T13:47:54;2.28;;;0.75;;
14100;SDS011;7127;49.372;8.166;2023-05-07T13:50:21;2.55;;;1.00;;
14100;SDS011;7127;49.372;8.166;2023-05-07T13:52:48;1.30;;;1.20;;
14100;SDS011;7127;49.372;8.166;2023-05-07T13:55:16;1.30;;;1.10;;
14100;SDS011;7127;49.372;8.166;2023-05-07T13:57:43;1.25;;;1.15;;
14100;SDS011;7127;49.372;8.166;2023-05-07T14:00:11;1.30;;;1.20;;
14100;SDS011;7127;49.372;8.166;2023-05-07T14:02:40;1.40;;;1.30;;
14100;SDS011;7127;49.372;8.166;2023-05-07T14:05:07;2.15;;;1.40;;
14100;SDS011;7127;49.372;8.166;2023-05-07T14:07:35;1.57;;;1.20;;
14100;SDS011;7127;49.372;8.166;2023-05-07T14:10:02;2.25;;;1.25;;
14100;SDS011;7127;49.372;8.166;2023-05-07T14:12:31;1.35;;;1.20;;
14100;SDS011;7127;49.372;8.166;2023-05-07T14:14:58;1.50;;;1.07;;
14100;SDS011;7127;49.372;8.166;2023-05-07T14:17:25;1.13;;;0.97;;
14100;SDS011;7127;49.372;8.166;2023-05-07T14:19:53;1.33;;;1.10;;
14100;SDS011;7127;49.372;8.166;2023-05-07T14:22:21;1.03;;;0.93;;
14100;SDS011;7127;49.372;8.166;2023-05-07T14:24:48;1.10;;;1.00;;
14100;SDS011;7127;49.372;8.166;2023-05-07T14:27:15;1.73;;;1.00;;
14100;SDS011;7127;49.372;8.166;2023-05-07T14:29:42;1.30;;;1.10;;
14100;SDS011;7127;49.372;8.166;2023-05-07T14:32:10;1.57;;;1.23;;
14100;SDS011;7127;49.372;8.166;2023-05-07T14:34:37;1.77;;;1.27;;
14100;SDS011;7127;49.372;8.166;2023-05-07T14:37:06;1.77;;;1.30;;
14100;SDS011;7127;49.372;8.166;2023-05-07T14:39:33;1.03;;;0.93;;
14100;SDS011;7127;49.372;8.166;2023-05-07T14:42:00;1.00;;;0.90;;
14100;SDS011;7127;49.372;8.166;2023-05-07T14:44:27;0.90;;;0.90;;
14100;SDS011;7127;49.372;8.166;2023-05-07T14:46:54;1.33;;;1.00;;
14100;SDS011;7127;49.372;8.166;2023-05-07T14:49:21;1.15;;;0.93;;
14100;SDS011;7127;49.372;8.166;2023-05-07T14:51:48;1.02;;;0.90;;
14100;SDS011;7127;49.372;8.166;2023-05-07T14:54:17;1.05;;;0.95;;
14100;SDS011;7127;49.372;8.166;2023-05-07T14:56:44;1.30;;;0.90;;
14100;SDS011;7127;49.372;8.166;2023-05-07T14:59:11;1.00;;;1.00;;
14100;SDS011;7127;49.372;8.166;2023-05-07T15:01:38;1.60;;;1.15;;
14100;SDS011;7127;49.372;8.166;2023-05-07T15:04:07;1.63;;;1.10;;
14100;SDS011;7127;49.372;8.166;2023-05-07T15:06:34;0.93;;;0.77;;
14100;SDS011;7127;49.372;8.166;2023-05-07T15:09:01;1.23;;;1.00;;
14100;SDS011;7127;49.372;8.166;2023-05-07T15:11:30;1.30;;;0.90;;
14100;SDS011;7127;49.372;8.166;2023-05-07T15:13:56;1.13;;;1.03;;
14100;SDS011;7127;49.372;8.166;2023-05-07T15:16:23;1.03;;;0.93;;
14100;SDS011;7127;49.372;8.166;2023-05-07T15:18:50;1.10;;;0.93;;
14100;SDS011;7127;49.372;8.166;2023-05-07T15:21:17;2.10;;;1.10;;
14100;SDS011;7127;49.372;8.166;2023-05-07T15:23:44;2.77;;;1.00;;
14100;SDS011;7127;49.372;8.166;2023-05-07T15:26:11;1.63;;;0.87;;
14100;SDS011;7127;49.372;8.166;2023-05-07T15:28:39;1.20;;;0.83;;
14100;SDS011;7127;49.372;8.166;2023-05-07T15:31:06;1.40;;;0.87;;
14100;SDS011;7127;49.372;8.166;2023-05-07T15:33:34;1.90;;;1.00;;
14100;SDS011;7127;49.372;8.166;2023-05-07T15:36:01;1.67;;;1.00;;
14100;SDS011;7127;49.372;8.166;2023-05-07T15:38:28;1.23;;;0.93;;
14100;SDS011;7127;49.372;8.166;2023-05-07T15:40:56;1.27;;;0.80;;
14100;SDS011;7127;49.372;8.166;2023-05-07T15:43:23;2.63;;;1.10;;
14100;SDS011;7127;49.372;8.166;2023-05-07T15:45:51;2.70;;;0.90;;
14100;SDS011;7127;49.372;8.166;2023-05-07T15:48:18;1.07;;;0.90;;
14100;SDS011;7127;49.372;8.166;2023-05-07T15:50:45;2.93;;;1.20;;
14100;SDS011;7127;49.372;8.166;2023-05-07T15:53:12;1.33;;;1.00;;
14100;SDS011;7127;49.372;8.166;2023-05-07T15:55:40;2.40;;;1.23;;
14100;SDS011;7127;49.372;8.166;2023-05-07T15:58:08;1.63;;;0.90;;
14100;SDS011;7127;49.372;8.166;2023-05-07T16:00:35;1.90;;;0.67;;
14100;SDS011;7127;49.372;8.166;2023-05-07T16:03:06;0.83;;;0.70;;